Time;durP1;ratioP1;P1;durP2;ratioP2;P2;SDS_P1;SDS_P2;PMS_P1;PMS_P2;Temp;Humidity;BMP_temperature;BMP_pressure;BME280_temperature;BME280_humidity;BME280_pressure;Samples;Min_cycle;Max_cycle;Signal;HPM_P1;HPM_P2
2023/02/12 07:20:11;;;;;;;20.80;10.60;;;7.50;99.90;;;;;;5040618;28;20464;-74
2023/02/12 07:22:46;;;;;;;18.10;9.90;;;7.50;99.90;;;;;;5047874;28;21257;-76
2023/02/12 07:25:17;;;;;;;16.37;9.63;;;7.50;99.90;;;;;;5050256;28;20481;-74
2023/02/12 07:27:48;;;;;;;20.00;10.97;;;7.50;99.90;;;;;;5055810;28;20496;-73
2023/02/12 07:30:21;;;;;;;19.80;10.77;;;7.60;99.90;;;;;;5059111;28;20508;-75
2023/02/12 07:32:50;;;;;;;18.77;10.00;;;7.50;99.90;;;;;;5061629;22;20596;-73
2023/02/12 07:35:25;;;;;;;19.07;10.17;;;7.60;99.90;;;;;;5020634;28;20619;-74
2023/02/12 07:37:55;;;;;;;18.00;9.80;;;7.60;99.90;;;;;;5030517;28;20500;-73
2023/02/12 07:40:27;;;;;;;19.10;10.00;;;7.60;99.90;;;;;;5025346;28;20562;-74
2023/02/12 07:42:55;;;;;;;18.50;11.10;;;7.60;99.90;;;;;;5034486;28;20498;-74
2023/02/12 07:45:30;;;;;;;23.53;10.60;;;7.60;99.90;;;;;;5032594;28;20490;-72
2023/02/12 07:48:01;;;;;;;21.47;11.23;;;7.60;99.90;;;;;;5015574;28;20976;-73
2023/02/12 07:50:31;;;;;;;24.67;11.57;;;7.60;99.90;;;;;;5027079;28;20946;-74
2023/02/12 07:53:06;;;;;;;24.67;10.90;;;7.60;99.90;;;;;;5014998;28;20504;-74
2023/02/12 07:55:34;;;;;;;24.10;11.10;;;7.60;99.90;;;;;;5024613;28;20466;-76
2023/02/12 07:58:06;;;;;;;24.07;11.33;;;7.60;99.90;;;;;;5039979;28;20563;-75
2023/02/12 08:00:36;;;;;;;22.23;11.70;;;7.60;99.90;;;;;;5036868;28;20834;-76
2023/02/12 08:03:07;;;;;;;23.73;10.80;;;7.70;99.90;;;;;;5034954;28;21044;-75
2023/02/12 08:05:38;;;;;;;22.10;11.30;;;7.70;99.90;;;;;;5025426;28;20467;-75
2023/02/12 08:08:06;;;;;;;19.30;10.50;;;7.70;99.90;;;;;;5040515;28;20474;-75
2023/02/12 08:10:34;;;;;;;19.63;11.37;;;7.70;99.90;;;;;;5042095;28;20481;-75
2023/02/12 08:13:04;;;;;;;21.67;11.03;;;7.70;99.90;;;;;;5042265;28;20490;-75
2023/02/12 08:15:32;;;;;;;19.93;11.40;;;7.70;99.90;;;;;;5042904;28;20501;-75
2023/02/12 08:18:02;;;;;;;21.03;11.23;;;7.70;99.90;;;;;;5032279;28;20474;-74
2023/02/12 08:20:38;;;;;;;21.07;10.73;;;7.80;99.90;;;;;;5020045;28;20475;-75
2023/02/12 08:23:08;;;;;;;19.00;11.60;;;7.80;99.90;;;;;;5013144;28;20492;-75
2023/02/12 08:25:42;;;;;;;22.63;12.10;;;7.80;99.90;;;;;;5024152;28;20492;-75
2023/02/12 08:28:10;;;;;;;20.73;11.80;;;7.80;99.90;;;;;;5011321;28;20512;-75
2023/02/12 08:30:40;;;;;;;21.50;12.47;;;7.80;99.90;;;;;;5018783;28;20741;-75
2023/02/12 08:33:11;;;;;;;20.90;11.97;;;7.80;99.90;;;;;;5029633;28;20585;-76
2023/02/12 08:35:39;;;;;;;22.93;12.20;;;7.80;99.90;;;;;;5016008;28;20509;-75
2023/02/12 08:38:09;;;;;;;20.17;11.47;;;7.80;99.90;;;;;;5018279;28;20490;-75
2023/02/12 08:40:37;;;;;;;19.73;11.83;;;7.90;99.90;;;;;;5030011;28;20471;-75
2023/02/12 08:43:05;;;;;;;21.90;11.73;;;7.90;99.90;;;;;;5004995;28;20493;-76
2023/02/12 08:45:33;;;;;;;20.10;10.83;;;7.90;99.90;;;;;;5028137;28;20466;-74
2023/02/12 08:48:01;;;;;;;18.03;11.13;;;7.90;99.90;;;;;;5040700;28;20474;-78
2023/02/12 08:50:29;;;;;;;21.73;11.73;;;7.90;99.90;;;;;;5046241;28;20459;-78
2023/02/12 08:52:57;;;;;;;19.63;11.87;;;8.00;99.90;;;;;;5039821;28;21166;-76
2023/02/12 08:55:27;;;;;;;20.33;12.10;;;8.00;99.90;;;;;;5038715;28;20717;-75
2023/02/12 08:57:56;;;;;;;18.03;10.70;;;8.10;99.90;;;;;;5032123;28;20718;-77
2023/02/12 09:00:24;;;;;;;17.30;10.73;;;8.10;99.90;;;;;;5029234;28;21240;-77
2023/02/12 09:02:52;;;;;;;19.30;11.33;;;8.10;99.90;;;;;;5023946;28;21623;-76
2023/02/12 09:05:20;;;;;;;19.83;11.20;;;8.20;99.90;;;;;;5031183;28;20473;-75
2023/02/12 09:07:48;;;;;;;17.60;10.17;;;8.20;99.90;;;;;;5041509;28;20497;-75
2023/02/12 09:10:16;;;;;;;21.60;11.57;;;8.30;99.90;;;;;;5061364;28;20941;-74
2023/02/12 09:12:47;;;;;;;18.40;10.90;;;8.30;99.90;;;;;;5056328;28;20487;-74
2023/02/12 09:15:15;;;;;;;19.60;11.00;;;8.30;99.90;;;;;;5050803;28;20559;-75
2023/02/12 09:17:43;;;;;;;16.13;9.50;;;8.30;99.90;;;;;;5047333;28;20569;-74
2023/02/12 09:20:11;;;;;;;17.77;11.50;;;8.30;99.90;;;;;;5047254;28;20481;-75
2023/02/12 09:22:39;;;;;;;20.17;11.30;;;8.30;99.90;;;;;;5046159;28;20496;-75
2023/02/12 09:25:08;;;;;;;17.23;10.97;;;8.40;99.90;;;;;;5040284;28;20473;-74
2023/02/12 09:27:35;;;;;;;17.90;10.57;;;8.40;99.90;;;;;;5037559;28;20481;-74
2023/02/12 09:30:06;;;;;;;18.23;10.53;;;8.40;99.90;;;;;;5039600;28;20552;-74
2023/02/12 09:32:33;;;;;;;18.70;11.00;;;8.40;99.90;;;;;;5022884;28;20498;-75
2023/02/12 09:35:01;;;;;;;16.93;11.20;;;8.40;99.90;;;;;;5031167;28;20502;-75
2023/02/12 09:37:29;;;;;;;19.20;10.40;;;8.40;99.90;;;;;;5038788;28;20978;-74
2023/02/12 09:39:57;;;;;;;15.37;9.60;;;8.40;99.90;;;;;;5038206;28;20993;-75
2023/02/12 09:42:48;;;;;;;16.23;10.10;;;8.40;99.90;;;;;;5019054;28;20494;-74
2023/02/12 09:45:21;;;;;;;17.77;10.83;;;8.40;99.90;;;;;;5028547;28;20475;-74
2023/02/12 09:47:55;;;;;;;15.83;10.20;;;8.40;99.90;;;;;;5022012;28;20565;-74
2023/02/12 09:50:42;;;;;;;18.37;12.10;;;8.40;99.90;;;;;;5016269;28;20521;-74
2023/02/12 09:53:14;;;;;;;17.00;10.87;;;8.50;99.90;;;;;;5035128;28;21046;-74
2023/02/12 09:55:44;;;;;;;22.57;11.60;;;8.50;99.90;;;;;;5035994;28;20511;-75
2023/02/12 09:58:16;;;;;;;22.37;11.57;;;8.50;99.90;;;;;;5028767;28;20490;-75
2023/02/12 10:00:45;;;;;;;19.40;11.33;;;8.50;99.90;;;;;;5038852;28;20466;-74
2023/02/12 10:03:18;;;;;;;21.57;11.27;;;8.50;99.90;;;;;;5034235;28;20497;-74
2023/02/12 10:05:51;;;;;;;18.07;11.77;;;8.50;99.90;;;;;;5034818;28;20469;-74
2023/02/12 10:08:41;;;;;;;19.33;10.93;;;8.50;99.90;;;;;;5035120;28;20486;-74
2023/02/12 10:11:37;;;;;;;16.43;10.20;;;8.50;99.90;;;;;;5039919;28;20474;-75
2023/02/12 10:14:31;;;;;;;20.17;11.93;;;8.50;99.90;;;;;;5039536;28;20500;-74
2023/02/12 10:17:07;;;;;;;19.07;11.27;;;8.40;99.90;;;;;;5035445;28;20471;-74
2023/02/12 10:20:00;;;;;;;20.77;12.20;;;8.40;99.90;;;;;;5035125;28;20841;-74
2023/02/12 10:22:43;;;;;;;18.40;11.37;;;8.40;99.90;;;;;;5031394;28;20930;-74
2023/02/12 10:25:29;;;;;;;17.83;10.87;;;8.40;99.90;;;;;;5034931;28;20832;-74
2023/02/12 10:28:01;;;;;;;20.03;11.00;;;8.50;99.90;;;;;;5034818;28;20466;-74
2023/02/12 10:30:40;;;;;;;19.90;13.57;;;8.40;99.90;;;;;;5033757;28;20467;-73
2023/02/12 10:33:16;;;;;;;22.40;12.93;;;8.50;99.90;;;;;;5033554;28;21008;-74
2023/02/12 10:35:49;;;;;;;25.30;13.77;;;8.50;99.90;;;;;;5034764;28;20495;-75
2023/02/12 10:38:21;;;;;;;22.33;13.20;;;8.50;99.90;;;;;;5012421;28;20486;-74
2023/02/12 10:40:50;;;;;;;21.87;12.60;;;8.50;99.90;;;;;;5021599;28;20459;-74
2023/02/12 10:43:18;;;;;;;22.80;13.60;;;8.50;99.90;;;;;;5034019;28;20494;-74
2023/02/12 10:45:46;;;;;;;21.17;12.23;;;8.50;99.90;;;;;;5029526;28;20471;-74
2023/02/12 10:48:18;;;;;;;22.33;13.40;;;8.50;99.90;;;;;;5018710;28;20897;-73
2023/02/12 10:51:02;;;;;;;19.67;12.57;;;8.50;99.90;;;;;;5007235;28;20485;-75
2023/02/12 10:53:33;;;;;;;21.30;12.53;;;8.50;99.90;;;;;;5016667;28;20486;-75
2023/02/12 10:56:16;;;;;;;21.63;13.67;;;8.50;99.90;;;;;;5027283;28;20487;-75
2023/02/12 10:58:55;;;;;;;22.90;13.33;;;8.50;99.90;;;;;;5026407;28;20605;-74
2023/02/12 11:01:27;;;;;;;22.13;13.23;;;8.50;99.90;;;;;;5015478;28;20472;-76
2023/02/12 11:04:18;;;;;;;23.50;14.53;;;8.50;99.90;;;;;;5023584;28;20573;-76
2023/02/12 11:06:57;;;;;;;22.80;13.87;;;8.50;99.90;;;;;;5029070;28;20463;-75
2023/02/12 11:09:34;;;;;;;20.60;14.00;;;8.50;99.90;;;;;;5018728;28;20490;-76
2023/02/12 11:12:04;;;;;;;24.93;15.27;;;8.50;99.90;;;;;;5010930;28;20482;-75
2023/02/12 11:14:34;;;;;;;22.57;13.90;;;8.50;99.90;;;;;;5024929;28;20477;-75
2023/02/12 11:17:20;;;;;;;20.67;13.67;;;8.60;99.90;;;;;;5018353;28;20498;-75
2023/02/12 11:20:08;;;;;;;22.00;13.40;;;8.60;99.90;;;;;;5015602;28;20527;-75
2023/02/12 11:22:40;;;;;;;19.00;12.10;;;8.60;99.90;;;;;;5024481;28;20490;-74
2023/02/12 11:25:15;;;;;;;20.80;12.77;;;8.60;99.90;;;;;;5013743;28;20471;-75
2023/02/12 11:27:44;;;;;;;19.33;11.97;;;8.60;99.90;;;;;;5012187;28;20493;-75
2023/02/12 11:30:16;;;;;;;19.60;12.73;;;8.60;99.90;;;;;;5025732;28;20605;-81
2023/02/12 11:32:48;;;;;;;19.70;12.30;;;8.60;99.90;;;;;;5025317;28;20490;-76
2023/02/12 11:35:24;;;;;;;19.80;12.67;;;8.60;99.90;;;;;;5019898;28;20470;-78
2023/02/12 11:37:55;;;;;;;20.27;13.20;;;8.60;99.90;;;;;;5031696;28;21068;-77
2023/02/12 11:40:27;;;;;;;20.17;12.77;;;8.60;99.90;;;;;;5030612;28;21005;-76
2023/02/12 11:42:59;;;;;;;21.20;13.37;;;8.70;99.90;;;;;;5015595;28;20834;-77
2023/02/12 11:45:34;;;;;;;19.87;12.77;;;8.70;99.90;;;;;;5016118;28;21468;-77
2023/02/12 11:48:02;;;;;;;19.17;12.13;;;8.70;99.90;;;;;;5025581;28;20525;-74
2023/02/12 11:50:34;;;;;;;23.13;14.10;;;8.70;99.90;;;;;;5024574;28;20459;-76
2023/02/12 11:53:08;;;;;;;20.67;12.27;;;8.70;99.90;;;;;;5028305;28;20495;-77
2023/02/12 11:55:39;;;;;;;21.50;11.93;;;8.70;99.90;;;;;;5030831;28;20494;-80
2023/02/12 11:58:15;;;;;;;23.17;13.33;;;8.70;99.90;;;;;;5035462;28;20498;-79
2023/02/12 12:00:50;;;;;;;21.60;12.57;;;8.70;99.90;;;;;;5039542;28;20470;-79
2023/02/12 12:03:27;;;;;;;24.13;13.20;;;8.60;99.90;;;;;;5045637;28;20640;-78
2023/02/12 12:06:01;;;;;;;22.80;13.40;;;8.60;99.90;;;;;;5044326;28;20463;-80
2023/02/12 12:08:38;;;;;;;22.30;12.30;;;8.60;99.90;;;;;;5030966;28;21020;-78
2023/02/12 12:11:14;;;;;;;22.13;12.60;;;8.60;99.90;;;;;;5039973;28;20473;-79
2023/02/12 12:13:53;;;;;;;19.50;12.37;;;8.60;99.90;;;;;;5038068;28;20497;-77
2023/02/12 12:22:27;;;;;;;18.43;11.33;;;8.60;99.90;;;;;;5036989;28;20905;-73
2023/02/12 12:25:05;;;;;;;18.60;10.67;;;8.60;99.90;;;;;;5018249;28;20477;-78
2023/02/12 12:30:40;;;;;;;15.30;8.63;;;8.70;99.90;;;;;;5008561;28;20487;-74
2023/02/12 12:33:17;;;;;;;10.97;7.03;;;8.70;99.90;;;;;;5043677;28;20846;-76
2023/02/12 12:36:03;;;;;;;11.53;7.37;;;8.60;99.90;;;;;;5030079;28;20577;-76
2023/02/12 12:38:47;;;;;;;12.57;8.00;;;8.60;99.90;;;;;;5038920;28;20486;-76
2023/02/12 12:41:31;;;;;;;10.83;6.40;;;8.70;99.90;;;;;;5039643;28;20494;-76
2023/02/12 12:44:17;;;;;;;7.97;6.60;;;8.70;99.90;;;;;;5031675;28;21035;-77
2023/02/12 12:47:01;;;;;;;8.83;6.70;;;8.80;99.90;;;;;;5030047;28;20468;-75
2023/02/12 12:49:44;;;;;;;10.93;6.10;;;8.80;99.90;;;;;;5029252;28;20486;-76
2023/02/12 12:52:35;;;;;;;8.60;6.60;;;8.80;99.90;;;;;;5036062;28;20474;-77
2023/02/12 12:55:23;;;;;;;8.97;6.37;;;8.90;99.90;;;;;;5018243;28;20528;-74
2023/02/12 12:58:00;;;;;;;9.53;6.23;;;8.90;99.90;;;;;;5029671;28;20486;-74
2023/02/12 13:01:00;;;;;;;8.00;6.43;;;8.90;99.90;;;;;;5027090;28;20482;-74
2023/02/12 13:04:04;;;;;;;9.43;6.70;;;8.90;99.90;;;;;;5027377;28;20501;-74
2023/02/12 13:06:56;;;;;;;8.33;6.07;;;8.90;99.90;;;;;;5029269;28;20547;-74
2023/02/12 13:09:58;;;;;;;7.93;6.23;;;8.90;99.90;;;;;;5030663;28;20569;-74
2023/02/12 13:12:44;;;;;;;8.00;5.70;;;8.90;99.90;;;;;;5016216;28;20883;-74
2023/02/12 13:15:21;;;;;;;9.70;6.50;;;8.90;99.90;;;;;;5014337;28;20983;-74
2023/02/12 13:17:58;;;;;;;6.93;5.97;;;8.90;99.90;;;;;;5027720;28;20469;-74
2023/02/12 13:20:34;;;;;;;8.23;5.67;;;8.80;99.90;;;;;;5023807;28;20471;-74
2023/02/12 13:23:10;;;;;;;11.63;6.20;;;8.80;99.90;;;;;;5025080;28;20497;-73
2023/02/12 13:25:44;;;;;;;8.30;5.57;;;8.90;99.90;;;;;;5028149;28;20477;-74
2023/02/12 13:28:22;;;;;;;7.67;5.83;;;8.90;99.90;;;;;;5029320;28;20488;-75
2023/02/12 13:30:53;;;;;;;8.83;5.50;;;8.90;99.90;;;;;;5030593;28;20488;-74
2023/02/12 13:33:27;;;;;;;6.50;5.30;;;8.80;99.90;;;;;;5036602;28;21062;-74
2023/02/12 13:35:58;;;;;;;9.47;5.10;;;8.80;99.90;;;;;;5053847;22;20506;-81
2023/02/12 13:38:34;;;;;;;8.20;5.10;;;8.80;99.90;;;;;;5051892;28;20498;-80
2023/02/12 13:41:08;;;;;;;7.97;5.53;;;8.80;99.90;;;;;;5054512;28;20478;-81
2023/02/12 13:44:07;;;;;;;6.70;5.30;;;8.80;99.90;;;;;;5051101;28;20922;-80
2023/02/12 13:46:50;;;;;;;8.27;5.00;;;8.80;99.90;;;;;;5021181;28;20487;-81
2023/02/12 13:49:29;;;;;;;6.50;5.00;;;8.80;99.90;;;;;;5021360;28;20572;-80
2023/02/12 13:52:03;;;;;;;6.90;5.00;;;8.90;99.90;;;;;;5022349;28;20662;-81
2023/02/12 13:54:52;;;;;;;6.53;5.17;;;8.90;99.90;;;;;;5028669;28;20776;-83
2023/02/12 13:57:21;;;;;;;5.93;5.10;;;8.90;99.90;;;;;;5031269;28;20521;-81
2023/02/12 13:59:57;;;;;;;6.33;4.90;;;8.90;99.90;;;;;;5017883;28;20521;-79
2023/02/12 14:02:51;;;;;;;6.93;5.13;;;8.90;99.90;;;;;;5010408;28;20475;-80
2023/02/12 14:05:37;;;;;;;5.83;4.90;;;8.90;99.90;;;;;;5024702;28;20491;-81
2023/02/12 14:08:06;;;;;;;5.87;4.60;;;9.00;99.90;;;;;;5029824;28;20502;-81
2023/02/12 14:10:37;;;;;;;6.40;5.43;;;9.00;99.90;;;;;;5023279;28;20974;-80
2023/02/12 14:13:19;;;;;;;7.30;5.30;;;8.90;99.90;;;;;;5023992;28;20610;-80
2023/02/12 14:15:57;;;;;;;7.30;5.67;;;8.90;99.90;;;;;;5025442;28;20499;-79
2023/02/12 14:18:33;;;;;;;8.03;5.80;;;8.90;99.90;;;;;;5009026;28;20505;-84
2023/02/12 14:21:47;;;;;;;6.20;5.20;;;8.90;99.90;;;;;;5026546;28;20466;-79
2023/02/12 14:24:51;;;;;;;6.50;5.80;;;8.90;99.90;;;;;;5023020;28;20462;-79
2023/02/12 14:27:41;;;;;;;10.27;6.23;;;8.80;99.90;;;;;;5033753;28;20486;-81
2023/02/12 14:30:30;;;;;;;9.40;7.20;;;8.80;99.90;;;;;;5022280;28;20490;-82
2023/02/12 14:33:21;;;;;;;8.50;6.20;;;8.80;99.90;;;;;;5050039;28;20471;-79
2023/02/12 14:36:13;;;;;;;8.50;6.40;;;8.80;99.90;;;;;;5032354;28;20883;-82
2023/02/12 14:39:01;;;;;;;8.70;6.57;;;8.80;99.90;;;;;;5027293;28;20490;-83
2023/02/12 14:41:42;;;;;;;8.80;6.93;;;8.80;99.90;;;;;;5033731;28;20467;-80
2023/02/12 14:44:37;;;;;;;10.93;6.90;;;8.80;99.90;;;;;;5028538;28;20509;-83
2023/02/12 14:47:13;;;;;;;10.60;6.87;;;8.80;99.90;;;;;;5006493;28;20466;-81
2023/02/12 14:49:47;;;;;;;9.30;6.60;;;8.80;99.90;;;;;;5019837;28;20484;-82
2023/02/12 14:52:19;;;;;;;8.60;6.83;;;8.80;99.90;;;;;;5027150;28;20495;-79
2023/02/12 14:54:51;;;;;;;8.30;6.70;;;8.80;99.90;;;;;;5026973;28;20486;-82
2023/02/12 14:57:25;;;;;;;7.90;6.30;;;8.80;99.90;;;;;;5017663;28;21243;-80
2023/02/12 14:59:55;;;;;;;8.03;7.10;;;8.80;99.90;;;;;;5020889;28;20486;-80
2023/02/12 15:02:28;;;;;;;7.70;6.40;;;8.90;99.90;;;;;;5022533;28;20471;-83
2023/02/12 15:05:02;;;;;;;7.97;6.27;;;8.80;99.90;;;;;;5018085;28;21007;-83
2023/02/12 15:07:37;;;;;;;7.10;6.30;;;8.90;99.90;;;;;;5005119;28;20460;-77
2023/02/12 15:10:12;;;;;;;8.70;6.13;;;8.80;99.90;;;;;;5016003;28;20458;-80
2023/02/12 15:12:45;;;;;;;8.07;5.90;;;8.80;99.90;;;;;;5010060;28;20462;-80
2023/02/12 15:15:23;;;;;;;8.93;6.70;;;8.80;99.90;;;;;;5006536;28;20917;-82
2023/02/12 15:18:02;;;;;;;8.50;6.10;;;8.80;99.90;;;;;;5008042;28;20494;-79
2023/02/12 15:20:43;;;;;;;9.43;8.30;;;8.80;99.90;;;;;;5016370;28;20487;-81
2023/02/12 15:23:35;;;;;;;8.50;6.83;;;8.80;99.90;;;;;;5020087;28;20538;-84
2023/02/12 15:26:05;;;;;;;8.80;6.80;;;8.80;99.90;;;;;;5027566;28;20486;-84
2023/02/12 15:28:36;;;;;;;11.67;7.80;;;8.80;99.90;;;;;;5027146;28;20987;-78
2023/02/12 15:31:12;;;;;;;7.00;6.30;;;8.80;99.90;;;;;;5016460;28;20468;-83
2023/02/12 15:33:45;;;;;;;5.87;5.00;;;8.80;99.90;;;;;;5032519;28;20463;-80
2023/02/12 15:36:20;;;;;;;6.80;5.60;;;8.80;99.90;;;;;;5022219;28;20626;-79
2023/02/12 15:38:51;;;;;;;5.90;5.30;;;8.80;99.90;;;;;;5022051;28;20499;-83
2023/02/12 15:41:34;;;;;;;6.27;4.60;;;8.80;99.90;;;;;;5025157;28;20471;-84
2023/02/12 15:44:18;;;;;;;6.23;4.90;;;8.80;99.90;;;;;;5025696;28;20475;-80
2023/02/12 15:46:57;;;;;;;5.00;4.60;;;8.70;99.90;;;;;;5010148;28;20479;-83
2023/02/12 15:49:32;;;;;;;5.80;5.30;;;8.70;99.90;;;;;;4999006;28;20491;-83
2023/02/12 15:52:08;;;;;;;5.57;4.70;;;8.70;99.90;;;;;;5013829;28;20467;-85
2023/02/12 15:54:37;;;;;;;4.53;4.13;;;8.70;99.90;;;;;;5018732;28;20496;-82
2023/02/12 15:57:11;;;;;;;4.13;3.73;;;8.70;99.90;;;;;;4989799;28;20479;-80
2023/02/12 15:59:43;;;;;;;6.93;6.23;;;8.70;99.90;;;;;;5003480;28;21068;-79
2023/02/12 16:02:20;;;;;;;6.10;5.50;;;8.70;99.90;;;;;;5000287;28;20475;-81
2023/02/12 16:04:49;;;;;;;4.67;4.27;;;8.70;99.90;;;;;;5005979;28;20503;-83
2023/02/12 16:07:19;;;;;;;4.07;3.77;;;8.70;99.90;;;;;;5003091;28;20475;-83
2023/02/12 16:09:48;;;;;;;4.37;4.00;;;8.60;99.90;;;;;;4992585;28;20490;-81
2023/02/12 16:12:22;;;;;;;5.07;4.63;;;8.60;99.90;;;;;;5015527;28;20567;-83
2023/02/12 16:14:53;;;;;;;4.63;4.23;;;8.60;99.90;;;;;;5013701;28;20487;-84
2023/02/12 16:17:27;;;;;;;6.80;5.70;;;8.60;99.90;;;;;;5013062;28;20463;-83
2023/02/12 16:19:57;;;;;;;5.73;4.13;;;8.60;99.90;;;;;;5021339;28;20497;-82
2023/02/12 16:22:31;;;;;;;6.40;5.70;;;8.60;99.90;;;;;;5014373;28;20520;-83
2023/02/12 16:25:01;;;;;;;5.60;3.90;;;8.60;99.90;;;;;;5013425;28;22444;-81
2023/02/12 16:27:31;;;;;;;5.40;4.60;;;8.60;99.90;;;;;;5016486;28;20479;-82
2023/02/12 16:30:01;;;;;;;5.73;5.23;;;8.60;99.90;;;;;;5015903;28;20783;-80
2023/02/12 16:32:35;;;;;;;4.20;3.80;;;8.60;99.90;;;;;;5013427;28;20471;-81
2023/02/12 16:35:19;;;;;;;4.50;4.10;;;8.50;99.90;;;;;;5009561;28;20614;-79
2023/02/12 16:37:50;;;;;;;4.40;4.00;;;8.50;99.90;;;;;;5007894;28;20481;-80
2023/02/12 16:40:28;;;;;;;6.27;5.10;;;8.50;99.90;;;;;;5020584;28;20479;-81
2023/02/12 16:43:06;;;;;;;4.73;4.27;;;8.50;99.90;;;;;;5012942;28;20459;-79
2023/02/12 16:45:42;;;;;;;4.50;4.10;;;8.50;99.90;;;;;;5026821;28;23402;-81
2023/02/12 16:48:17;;;;;;;4.50;4.10;;;8.50;99.90;;;;;;5020754;28;20604;-83
2023/02/12 16:50:49;;;;;;;4.77;4.27;;;8.50;99.90;;;;;;5021002;28;20471;-82
2023/02/12 16:53:34;;;;;;;6.87;4.97;;;8.40;99.90;;;;;;5008088;28;20475;-84
2023/02/12 16:56:04;;;;;;;6.93;5.13;;;8.40;99.90;;;;;;5013733;28;20494;-78
2023/02/12 16:58:32;;;;;;;4.70;3.97;;;8.40;99.90;;;;;;5025312;28;21016;-78
2023/02/12 17:01:03;;;;;;;5.53;4.97;;;8.40;99.90;;;;;;5016984;28;21183;-82
2023/02/12 17:03:35;;;;;;;5.23;4.77;;;8.40;99.90;;;;;;5004210;28;20467;-84
2023/02/12 17:06:04;;;;;;;5.33;4.53;;;8.40;99.90;;;;;;5015995;28;20487;-80
2023/02/12 17:08:38;;;;;;;5.47;4.93;;;8.40;99.90;;;;;;5017571;28;20491;-84
2023/02/12 17:11:06;;;;;;;5.10;4.60;;;8.40;99.90;;;;;;5016365;28;20463;-81
2023/02/12 17:13:38;;;;;;;7.00;5.37;;;8.40;99.90;;;;;;5005417;28;20692;-85
2023/02/12 17:16:11;;;;;;;6.00;5.47;;;8.40;99.90;;;;;;5022273;28;20496;-81
2023/02/12 17:18:59;;;;;;;6.40;5.70;;;8.30;99.90;;;;;;5013422;28;20540;-82
2023/02/12 17:21:31;;;;;;;6.07;5.40;;;8.30;99.90;;;;;;5006986;28;20566;-82
2023/02/12 17:24:02;;;;;;;5.97;5.37;;;8.30;99.90;;;;;;5022770;28;20472;-83
2023/02/12 17:26:33;;;;;;;5.67;4.90;;;8.30;99.90;;;;;;5027028;28;21352;-81
2023/02/12 17:29:04;;;;;;;6.97;6.17;;;8.30;99.90;;;;;;5017053;28;20495;-83
2023/02/12 17:31:35;;;;;;;6.47;5.70;;;8.30;99.90;;;;;;5025209;28;20506;-80
2023/02/12 17:34:06;;;;;;;7.03;6.43;;;8.30;99.90;;;;;;5006813;28;20554;-85
2023/02/12 17:39:24;;;;;;;7.87;6.70;;;8.30;99.90;;;;;;5009514;28;20518;-78
2023/02/12 17:41:58;;;;;;;7.80;6.20;;;8.30;99.90;;;;;;4997704;28;20475;-84
2023/02/12 17:44:26;;;;;;;6.60;5.93;;;8.30;99.90;;;;;;5011703;28;20466;-83
2023/02/12 17:46:58;;;;;;;6.90;6.20;;;8.30;99.90;;;;;;5015348;28;20483;-84
2023/02/12 17:49:28;;;;;;;7.23;6.53;;;8.30;99.90;;;;;;5006132;28;20486;-81
2023/02/12 17:52:02;;;;;;;8.80;6.90;;;8.30;99.90;;;;;;5015300;28;20527;-80
2023/02/12 17:54:37;;;;;;;8.60;6.80;;;8.30;99.90;;;;;;5014863;28;20856;-82
2023/02/12 17:57:13;;;;;;;8.00;7.20;;;8.30;99.90;;;;;;5003556;28;20468;-82
2023/02/12 17:59:44;;;;;;;8.27;6.17;;;8.30;99.90;;;;;;5015148;28;20597;-86
2023/02/12 18:02:12;;;;;;;7.13;6.43;;;8.30;99.90;;;;;;5000779;28;20471;-77
2023/02/12 18:04:47;;;;;;;8.57;7.03;;;8.30;99.90;;;;;;5019404;28;20495;-78
2023/02/12 18:07:20;;;;;;;7.70;6.93;;;8.30;99.90;;;;;;5028645;28;20467;-77
2023/02/12 18:09:51;;;;;;;6.43;5.80;;;8.30;99.90;;;;;;5031933;28;20486;-80
2023/02/12 18:12:20;;;;;;;8.90;6.40;;;8.30;99.90;;;;;;5018126;28;20467;-81
2023/02/12 18:14:47;;;;;;;7.33;6.30;;;8.30;99.90;;;;;;5015356;28;20491;-79
2023/02/12 18:17:16;;;;;;;7.33;6.63;;;8.20;99.90;;;;;;4992362;28;20478;-81
2023/02/12 18:19:46;;;;;;;8.00;7.10;;;8.20;99.90;;;;;;5010561;28;20502;-80
2023/02/12 18:22:14;;;;;;;7.63;6.83;;;8.20;99.90;;;;;;5007191;28;20487;-84
2023/02/12 18:24:44;;;;;;;9.70;8.70;;;8.20;99.90;;;;;;5018096;28;20510;-87
2023/02/12 18:27:18;;;;;;;8.60;6.60;;;8.20;99.90;;;;;;5008058;28;20471;-81
2023/02/12 18:29:46;;;;;;;7.17;6.47;;;8.20;99.90;;;;;;5017733;28;20518;-81
2023/02/12 18:32:15;;;;;;;8.60;7.70;;;8.20;99.90;;;;;;5014149;28;20482;-79
2023/02/12 18:34:45;;;;;;;8.57;7.63;;;8.20;99.90;;;;;;5022292;28;20502;-80
2023/02/12 18:37:13;;;;;;;8.37;6.60;;;8.20;99.90;;;;;;5012700;28;20467;-78
2023/02/12 18:39:41;;;;;;;9.47;7.53;;;8.20;99.90;;;;;;5013179;28;20491;-78
2023/02/12 18:42:09;;;;;;;8.10;7.10;;;8.20;99.90;;;;;;5015208;28;20544;-79
2023/02/12 18:44:43;;;;;;;8.43;7.43;;;8.20;99.90;;;;;;5014304;28;20500;-78
2023/02/12 18:47:11;;;;;;;9.17;8.20;;;8.20;99.90;;;;;;5017689;28;20463;-78
2023/02/12 18:49:47;;;;;;;10.17;8.00;;;8.20;99.90;;;;;;5028082;28;20487;-86
2023/02/12 18:52:20;;;;;;;8.70;7.83;;;8.20;99.90;;;;;;5016608;28;21001;-85
2023/02/12 18:54:48;;;;;;;10.17;8.43;;;8.20;99.90;;;;;;5011791;28;20488;-81
2023/02/12 18:57:19;;;;;;;11.70;8.47;;;8.20;99.90;;;;;;5011670;28;20470;-81
2023/02/12 18:59:48;;;;;;;9.60;8.60;;;8.20;99.90;;;;;;5014577;28;20491;-82
2023/02/12 19:02:16;;;;;;;10.60;8.67;;;8.20;99.90;;;;;;5010172;28;21933;-79
2023/02/12 19:04:44;;;;;;;9.83;8.83;;;8.20;99.90;;;;;;5021157;28;20566;-81
2023/02/12 19:07:12;;;;;;;11.50;9.30;;;8.20;99.90;;;;;;5017156;28;20485;-79
2023/02/12 19:09:40;;;;;;;9.73;8.70;;;8.20;99.90;;;;;;5038758;28;20562;-79
2023/02/12 19:12:12;;;;;;;9.20;8.30;;;8.20;99.90;;;;;;5032468;28;21239;-79
2023/02/12 19:14:42;;;;;;;11.93;8.57;;;8.20;99.90;;;;;;5024745;28;21016;-85
2023/02/12 19:17:13;;;;;;;10.23;9.13;;;8.20;99.90;;;;;;5033771;28;20466;-78
2023/02/12 19:19:41;;;;;;;9.70;8.70;;;8.20;99.90;;;;;;5030289;28;20553;-80
2023/02/12 19:22:09;;;;;;;12.43;10.40;;;8.20;99.90;;;;;;5028188;28;20467;-82
2023/02/12 19:24:37;;;;;;;11.80;10.60;;;8.20;99.90;;;;;;5023404;28;20487;-82
2023/02/12 19:27:14;;;;;;;11.67;9.63;;;8.20;99.90;;;;;;5019759;28;20487;-81
2023/02/12 19:29:44;;;;;;;13.23;10.40;;;8.10;99.90;;;;;;5016898;28;20491;-85
2023/02/12 19:32:13;;;;;;;11.03;9.93;;;8.20;99.90;;;;;;5019004;28;20478;-83
2023/02/12 19:34:41;;;;;;;13.53;10.97;;;8.20;99.90;;;;;;5020269;28;20484;-86
2023/02/12 19:37:11;;;;;;;13.50;12.10;;;8.20;99.90;;;;;;5072002;22;20504;-76
2023/02/12 19:39:40;;;;;;;15.97;11.20;;;8.20;99.90;;;;;;5073782;28;20492;-75
2023/02/12 19:42:09;;;;;;;13.00;10.90;;;8.10;99.90;;;;;;5075820;28;20475;-75
2023/02/12 19:44:37;;;;;;;13.60;11.10;;;8.10;99.90;;;;;;5078074;28;20481;-74
2023/02/12 19:47:07;;;;;;;12.57;11.23;;;8.10;99.90;;;;;;5060994;28;20964;-73
2023/02/12 19:49:40;;;;;;;13.97;11.97;;;8.10;99.90;;;;;;5085307;28;20476;-73
2023/02/12 19:52:08;;;;;;;16.20;12.30;;;8.10;99.90;;;;;;5079255;28;21135;-74
2023/02/12 19:54:36;;;;;;;13.40;11.30;;;8.10;99.90;;;;;;5079361;28;20473;-74
2023/02/12 19:57:08;;;;;;;14.00;12.13;;;8.10;99.90;;;;;;5075321;28;20477;-74
2023/02/12 19:59:36;;;;;;;14.80;12.20;;;8.10;99.90;;;;;;5084531;28;20596;-74
2023/02/12 20:02:06;;;;;;;15.80;13.00;;;8.10;99.90;;;;;;5074788;28;20465;-74
2023/02/12 20:04:35;;;;;;;16.93;13.23;;;8.10;99.90;;;;;;5080349;28;20863;-73
2023/02/12 20:07:05;;;;;;;17.00;13.37;;;8.10;99.90;;;;;;5085329;28;20833;-73
2023/02/12 20:09:33;;;;;;;16.20;13.67;;;8.10;99.90;;;;;;5065580;28;20484;-75
2023/02/12 20:12:01;;;;;;;15.53;12.57;;;8.10;99.90;;;;;;5085381;28;20530;-73
2023/02/12 20:14:31;;;;;;;16.87;14.10;;;8.10;99.90;;;;;;5070380;28;20546;-74
2023/02/12 20:16:59;;;;;;;15.47;13.23;;;8.10;99.90;;;;;;5072381;28;20495;-75
2023/02/12 20:19:30;;;;;;;14.70;12.00;;;8.10;99.90;;;;;;5074671;28;20496;-75
2023/02/12 20:22:00;;;;;;;15.97;12.80;;;8.10;99.90;;;;;;5076658;28;20489;-75
2023/02/12 20:24:32;;;;;;;16.60;14.40;;;8.10;99.90;;;;;;5058188;28;22942;-75
2023/02/12 20:27:02;;;;;;;16.63;14.13;;;8.10;99.90;;;;;;5055280;28;20489;-74
2023/02/12 20:29:33;;;;;;;17.80;14.63;;;8.10;99.90;;;;;;5050535;28;20899;-74
2023/02/12 20:32:01;;;;;;;16.73;14.70;;;8.10;99.90;;;;;;5059284;28;20477;-74
2023/02/12 20:34:34;;;;;;;18.63;14.27;;;8.10;99.90;;;;;;5054903;28;22094;-76
2023/02/12 20:37:22;;;;;;;18.00;14.50;;;8.10;99.90;;;;;;5062968;28;20512;-74
2023/02/12 20:39:57;;;;;;;18.27;15.30;;;8.10;99.90;;;;;;5056023;28;21679;-74
2023/02/12 20:42:29;;;;;;;18.33;14.10;;;8.10;99.90;;;;;;5051032;28;20473;-74
2023/02/12 20:45:04;;;;;;;18.93;15.43;;;8.10;99.90;;;;;;5047409;28;20472;-74
2023/02/12 20:47:33;;;;;;;18.37;15.77;;;8.10;99.90;;;;;;5069948;28;20473;-74
2023/02/12 20:50:08;;;;;;;17.30;14.60;;;8.10;99.90;;;;;;5073161;28;20572;-74
2023/02/12 20:52:43;;;;;;;18.73;15.20;;;8.10;99.90;;;;;;5077719;28;20468;-74